createdAt,value
2023-02-25T00:01:17.116Z,6.21
2023-02-25T00:03:44.111Z,6.21
2023-02-25T00:06:15.432Z,6.22
2023-02-25T00:08:45.645Z,6.21
2023-02-25T00:11:13.613Z,6.11
2023-02-25T00:13:41.362Z,6.12
2023-02-25T00:16:08.998Z,6.14
2023-02-25T00:18:35.981Z,6.16
2023-02-25T00:21:05.556Z,6.15
2023-02-25T00:23:32.406Z,6.07
2023-02-25T00:26:03.181Z,6.05
2023-02-25T00:28:29.732Z,6.07
2023-02-25T00:30:56.435Z,6.06
2023-02-25T00:33:23.022Z,5.99
2023-02-25T00:35:51.328Z,5.88
2023-02-25T00:38:18.162Z,5.54
2023-02-25T00:40:46.257Z,5.19
2023-02-25T00:43:12.789Z,5.07
2023-02-25T00:45:42.902Z,5.22
2023-02-25T00:48:09.484Z,5.02
2023-02-25T00:50:36.284Z,5.08
2023-02-25T00:53:03.033Z,5.00
2023-02-25T00:55:33.380Z,4.87
2023-02-25T00:58:03.227Z,4.90
2023-02-25T01:00:31.555Z,5.00
2023-02-25T01:03:00.817Z,4.93
2023-02-25T01:05:27.362Z,4.96
2023-02-25T01:07:53.916Z,5.03
2023-02-25T01:10:20.429Z,5.13
2023-02-25T01:12:46.957Z,5.14
2023-02-25T01:15:15.180Z,5.13
2023-02-25T01:17:41.781Z,5.18
2023-02-25T01:20:13.047Z,5.20
2023-02-25T01:22:41.778Z,5.20
2023-02-25T01:25:12.990Z,5.18
2023-02-25T01:27:39.635Z,5.03
2023-02-25T01:30:06.762Z,5.08
2023-02-25T01:32:33.342Z,5.17
2023-02-25T01:34:59.925Z,5.14
2023-02-25T01:37:26.536Z,5.22
2023-02-25T01:39:53.016Z,5.29
2023-02-25T01:42:19.544Z,5.34
2023-02-25T01:45:20.179Z,5.38
2023-02-25T01:47:50.675Z,5.38
2023-02-25T01:50:19.691Z,5.41
2023-02-25T01:52:46.384Z,5.41
2023-02-25T01:55:13.357Z,5.40
2023-02-25T01:57:40.037Z,5.40
2023-02-25T02:00:28.305Z,5.41
2023-02-25T02:02:55.629Z,5.36
2023-02-25T02:05:25.729Z,5.37
2023-02-25T02:07:52.229Z,5.36
2023-02-25T02:10:19.734Z,5.38
2023-02-25T02:12:47.400Z,5.42
2023-02-25T02:15:15.532Z,5.48
2023-02-25T02:17:41.914Z,5.32
2023-02-25T02:20:47.357Z,5.36
2023-02-25T02:23:34.291Z,5.26
2023-02-25T02:26:28.211Z,5.28
2023-02-25T02:29:20.121Z,5.40
2023-02-25T02:32:03.119Z,5.27
2023-02-25T02:34:50.111Z,5.32
2023-02-25T02:37:53.606Z,5.28
2023-02-25T02:40:31.092Z,5.20
2023-02-25T02:43:08.754Z,5.18
2023-02-25T02:45:47.816Z,5.34
2023-02-25T02:48:37.706Z,5.36
2023-02-25T02:51:12.448Z,5.40
2023-02-25T02:53:42.881Z,5.36
2023-02-25T02:56:12.970Z,5.30
2023-02-25T02:58:49.304Z,5.13
2023-02-25T03:01:18.704Z,5.28
2023-02-25T03:03:52.579Z,5.39
2023-02-25T03:06:27.405Z,5.33
2023-02-25T03:08:57.197Z,5.31
2023-02-25T03:11:23.779Z,5.13
2023-02-25T03:13:51.357Z,5.21
2023-02-25T03:16:29.351Z,5.24
2023-02-25T03:19:03.452Z,5.01
2023-02-25T03:21:36.460Z,5.20
2023-02-25T03:24:04.636Z,5.04
2023-02-25T03:26:32.763Z,5.07
2023-02-25T03:29:02.300Z,5.20
2023-02-25T03:31:32.442Z,5.23
2023-02-25T03:34:19.043Z,5.14
2023-02-25T03:36:52.940Z,5.02
2023-02-25T03:39:22.209Z,5.10
2023-02-25T03:41:54.963Z,5.13
2023-02-25T03:44:25.317Z,5.03
2023-02-25T03:46:53.812Z,4.85
2023-02-25T03:49:25.810Z,5.13
2023-02-25T03:51:52.964Z,5.25
2023-02-25T03:54:22.575Z,5.22
2023-02-25T03:56:51.056Z,5.05
2023-02-25T03:59:18.876Z,5.05
2023-02-25T04:01:47.436Z,5.00
2023-02-25T04:04:14.475Z,4.93
2023-02-25T04:06:41.268Z,4.84
2023-02-25T04:09:07.894Z,4.91
2023-02-25T04:11:34.568Z,5.04
2023-02-25T04:14:02.183Z,5.11
2023-02-25T04:16:28.942Z,4.97
2023-02-25T04:19:02.407Z,4.87
2023-02-25T04:21:35.688Z,4.96
2023-02-25T04:24:06.056Z,5.03
2023-02-25T04:26:34.557Z,4.88
2023-02-25T04:29:04.972Z,4.88
2023-02-25T04:31:37.207Z,4.66
2023-02-25T04:34:07.872Z,4.82
2023-02-25T04:36:36.416Z,4.88
2023-02-25T04:39:10.154Z,4.82
2023-02-25T04:41:37.348Z,4.85
2023-02-25T04:46:52.254Z,4.84
2023-02-25T04:49:21.021Z,4.74
2023-02-25T04:51:49.627Z,4.77
2023-02-25T04:54:18.509Z,4.67
2023-02-25T04:56:45.476Z,4.83
2023-02-25T04:59:12.741Z,4.82
2023-02-25T05:01:40.172Z,4.87
2023-02-25T05:04:07.390Z,4.91
2023-02-25T05:06:34.769Z,4.71
2023-02-25T05:09:01.402Z,4.65
2023-02-25T05:11:28.804Z,4.61
2023-02-25T05:13:57.142Z,4.78
2023-02-25T05:16:24.862Z,4.64
2023-02-25T05:18:52.067Z,4.48
2023-02-25T05:21:20.975Z,4.45
2023-02-25T05:23:49.174Z,4.69
2023-02-25T05:26:17.120Z,4.59
2023-02-25T05:28:48.716Z,4.65
2023-02-25T05:31:15.440Z,4.61
2023-02-25T05:33:41.963Z,4.53
2023-02-25T05:36:10.138Z,4.65
2023-02-25T05:38:36.836Z,4.53
2023-02-25T05:41:05.863Z,4.54
2023-02-25T05:43:32.475Z,4.46
2023-02-25T05:46:00.473Z,4.49
2023-02-25T05:48:27.226Z,4.47
2023-02-25T05:51:03.888Z,4.44
2023-02-25T05:53:30.463Z,4.47
2023-02-25T05:55:56.992Z,4.47
2023-02-25T05:58:24.017Z,4.39
2023-02-25T06:00:50.699Z,4.43
2023-02-25T06:03:17.465Z,4.32
2023-02-25T06:05:46.250Z,4.09
2023-02-25T06:08:14.192Z,4.22
2023-02-25T06:10:41.064Z,4.05
2023-02-25T06:13:09.160Z,4.14
2023-02-25T06:15:40.131Z,4.05
2023-02-25T06:18:06.692Z,3.84
2023-02-25T06:20:35.224Z,3.95
2023-02-25T06:23:02.607Z,4.08
2023-02-25T06:25:30.009Z,3.97
2023-02-25T06:28:00.692Z,3.89
2023-02-25T06:30:28.843Z,3.91
2023-02-25T06:32:55.972Z,4.04
2023-02-25T06:35:25.351Z,4.07
2023-02-25T06:37:56.225Z,4.02
2023-02-25T06:40:22.948Z,4.11
2023-02-25T06:42:49.816Z,3.84
2023-02-25T06:45:16.350Z,3.87
2023-02-25T06:47:42.974Z,3.98
2023-02-25T06:50:10.070Z,4.06
2023-02-25T06:52:36.753Z,3.94
2023-02-25T06:55:06.765Z,3.94
2023-02-25T06:57:34.213Z,3.94
2023-02-25T07:00:00.855Z,3.88
2023-02-25T07:02:28.257Z,3.98
2023-02-25T07:04:55.132Z,4.14
2023-02-25T07:07:22.493Z,4.04
2023-02-25T07:09:49.252Z,3.96
2023-02-25T07:12:16.169Z,4.04
2023-02-25T07:14:42.972Z,4.10
2023-02-25T07:17:09.772Z,4.09
2023-02-25T07:19:36.352Z,4.02
2023-02-25T07:22:03.250Z,4.09
2023-02-25T07:24:29.997Z,4.15
2023-02-25T07:26:56.551Z,3.97
2023-02-25T07:29:23.161Z,3.98
2023-02-25T07:31:49.850Z,4.18
2023-02-25T07:34:16.634Z,4.23
2023-02-25T07:36:43.169Z,4.00
2023-02-25T07:39:11.341Z,3.99
2023-02-25T07:41:38.337Z,4.02
2023-02-25T07:44:05.812Z,4.12
2023-02-25T07:46:33.182Z,4.13
2023-02-25T07:49:00.848Z,4.00
2023-02-25T07:51:28.027Z,4.06
2023-02-25T07:53:55.995Z,4.13
2023-02-25T07:56:23.406Z,4.18
2023-02-25T07:58:50.288Z,4.25
2023-02-25T08:01:30.999Z,4.18
2023-02-25T08:03:59.786Z,3.92
2023-02-25T08:06:27.685Z,3.87
2023-02-25T08:08:55.388Z,3.75
2023-02-25T08:11:24.207Z,3.67
2023-02-25T08:13:51.125Z,3.74
2023-02-25T08:16:19.442Z,3.85
2023-02-25T08:18:47.042Z,3.94
2023-02-25T08:21:15.382Z,3.82
2023-02-25T08:23:41.905Z,3.85
2023-02-25T08:26:09.910Z,3.80
2023-02-25T08:28:37.307Z,3.84
2023-02-25T08:31:07.023Z,4.04
2023-02-25T08:33:34.081Z,4.04
2023-02-25T08:36:31.275Z,4.09
2023-02-25T08:38:58.869Z,4.04
2023-02-25T08:41:27.436Z,4.05
2023-02-25T08:43:55.381Z,4.10
2023-02-25T08:46:23.085Z,4.04
2023-02-25T08:48:51.232Z,4.01
2023-02-25T08:51:18.454Z,4.05
2023-02-25T08:53:45.087Z,4.07
2023-02-25T08:56:13.705Z,4.11
2023-02-25T08:58:40.948Z,4.07
2023-02-25T09:01:13.213Z,4.04
2023-02-25T09:03:53.256Z,4.11
2023-02-25T09:06:25.643Z,4.03
2023-02-25T09:08:52.872Z,3.98
2023-02-25T09:11:21.088Z,4.11
2023-02-25T09:13:47.856Z,4.07
2023-02-25T09:16:17.360Z,3.93
2023-02-25T09:18:45.839Z,3.93
2023-02-25T09:21:12.937Z,3.98
2023-02-25T09:23:40.025Z,3.93
2023-02-25T09:26:09.973Z,3.97
2023-02-25T09:28:36.688Z,4.02
2023-02-25T09:31:03.685Z,4.16
2023-02-25T09:33:33.980Z,4.06
2023-02-25T09:36:12.322Z,4.19
2023-02-25T09:38:40.497Z,4.42
2023-02-25T09:41:24.776Z,4.72
2023-02-25T09:44:00.954Z,4.99
2023-02-25T09:46:30.028Z,5.04
2023-02-25T09:49:14.804Z,4.72
2023-02-25T09:51:44.442Z,4.57
2023-02-25T09:54:19.591Z,4.57
2023-02-25T09:56:46.472Z,4.55
2023-02-25T09:59:15.884Z,4.46
2023-02-25T10:01:47.421Z,4.47
2023-02-25T10:04:37.797Z,4.67
2023-02-25T10:07:21.164Z,4.66
2023-02-25T10:10:03.077Z,4.64
2023-02-25T10:12:43.267Z,4.59
2023-02-25T10:15:22.488Z,4.72
2023-02-25T10:18:00.802Z,4.53
2023-02-25T10:20:48.682Z,4.52
2023-02-25T10:23:40.572Z,4.46
2023-02-25T10:26:22.844Z,4.40
2023-02-25T10:28:55.322Z,4.43
2023-02-25T10:31:23.202Z,4.51
2023-02-25T10:33:56.858Z,4.69
2023-02-25T10:36:41.523Z,4.92
2023-02-25T10:39:09.966Z,5.04
2023-02-25T10:41:37.076Z,5.05
2023-02-25T10:44:03.737Z,5.07
2023-02-25T10:46:50.608Z,5.33
2023-02-25T10:49:23.392Z,5.43
2023-02-25T10:52:03.696Z,5.38
2023-02-25T10:54:35.446Z,5.45
2023-02-25T10:57:08.502Z,5.71
2023-02-25T10:59:38.631Z,5.68
2023-02-25T11:02:21.415Z,5.61
2023-02-25T11:04:49.112Z,5.75
2023-02-25T11:07:35.715Z,5.79
2023-02-25T11:10:19.553Z,5.85
2023-02-25T11:12:53.094Z,5.82
2023-02-25T11:15:45.838Z,5.52
2023-02-25T11:18:31.108Z,5.42
2023-02-25T11:21:03.659Z,5.34
2023-02-25T11:23:33.031Z,5.01
2023-02-25T11:25:59.654Z,4.98
2023-02-25T11:28:41.271Z,4.95
2023-02-25T11:31:17.825Z,4.92
2023-02-25T11:33:50.824Z,4.87
2023-02-25T11:36:23.501Z,4.92
2023-02-25T11:39:03.878Z,5.08
2023-02-25T11:41:32.232Z,5.22
2023-02-25T11:44:11.308Z,5.22
2023-02-25T11:46:38.159Z,4.91
2023-02-25T11:49:15.035Z,4.96
2023-02-25T11:52:03.883Z,5.00
2023-02-25T11:54:36.378Z,5.01
2023-02-25T11:57:36.072Z,4.85
2023-02-25T12:00:25.608Z,4.58
2023-02-25T12:03:10.436Z,4.15
2023-02-25T12:06:06.798Z,4.02
2023-02-25T12:08:52.215Z,4.13
2023-02-25T12:11:40.552Z,3.94
2023-02-25T12:14:25.952Z,4.22
2023-02-25T12:17:00.891Z,4.25
2023-02-25T12:19:57.199Z,4.39
2023-02-25T12:22:46.359Z,4.44
2023-02-25T12:25:28.349Z,4.52
2023-02-25T12:28:17.135Z,4.41
2023-02-25T12:31:17.787Z,4.46
2023-02-25T12:34:06.809Z,4.15
2023-02-25T12:36:43.529Z,4.15
2023-02-25T12:39:19.240Z,4.19
2023-02-25T12:42:13.742Z,3.80
2023-02-25T12:45:03.659Z,3.71
2023-02-25T12:48:19.069Z,3.74
2023-02-25T12:51:15.144Z,3.74
2023-02-25T12:54:03.036Z,3.83
2023-02-25T12:56:53.249Z,3.78
2023-02-25T12:59:42.560Z,3.72
2023-02-25T13:02:33.963Z,3.68
2023-02-25T13:05:15.863Z,3.70
2023-02-25T13:08:10.827Z,3.58
2023-02-25T13:10:44.428Z,3.61
2023-02-25T13:13:30.778Z,3.68
2023-02-25T13:16:13.269Z,3.72
2023-02-25T13:18:50.641Z,3.91
2023-02-25T13:21:27.446Z,3.80
2023-02-25T13:24:11.703Z,3.87
2023-02-25T13:27:02.866Z,4.02
2023-02-25T13:29:46.145Z,4.05
2023-02-25T13:32:32.191Z,4.00
2023-02-25T13:35:32.280Z,4.24
2023-02-25T13:38:20.286Z,4.39
2023-02-25T13:41:11.610Z,4.19
2023-02-25T13:44:07.519Z,4.22
2023-02-25T13:46:43.317Z,4.36
2023-02-25T13:49:30.619Z,4.52
2023-02-25T13:52:17.570Z,4.41
2023-02-25T13:55:10.142Z,4.13
2023-02-25T13:58:14.497Z,4.09
2023-02-25T14:01:04.303Z,4.17
2023-02-25T14:03:58.308Z,4.07
2023-02-25T14:06:47.489Z,4.00
2023-02-25T14:09:38.325Z,4.07
2023-02-25T14:12:31.080Z,3.86
2023-02-25T14:15:02.107Z,3.91
2023-02-25T14:17:37.783Z,3.90
2023-02-25T14:20:28.418Z,3.90
2023-02-25T14:23:22.704Z,4.03
2023-02-25T14:26:14.272Z,4.05
2023-02-25T14:29:06.611Z,4.06
2023-02-25T14:32:08.667Z,4.04
2023-02-25T14:34:50.538Z,3.96
2023-02-25T14:37:26.580Z,4.05
2023-02-25T14:40:05.257Z,4.04
2023-02-25T14:42:57.703Z,4.01
2023-02-25T14:45:42.285Z,4.12
2023-02-25T14:48:27.271Z,4.11
2023-02-25T14:51:18.684Z,4.11
2023-02-25T14:54:00.692Z,4.17
2023-02-25T14:57:01.617Z,4.19
2023-02-25T14:59:40.301Z,4.26
2023-02-25T15:02:06.851Z,4.28
2023-02-25T15:04:35.722Z,4.27
2023-02-25T15:07:59.829Z,4.19
2023-02-25T15:11:03.737Z,4.18
2023-02-25T15:13:38.459Z,4.24
2023-02-25T15:16:13.916Z,4.33
2023-02-25T15:19:07.964Z,4.21
2023-02-25T15:21:44.076Z,4.15
2023-02-25T15:24:40.549Z,4.04
2023-02-25T15:27:35.167Z,3.82
2023-02-25T15:30:12.616Z,3.98
2023-02-25T15:32:53.385Z,3.92
2023-02-25T15:35:23.433Z,4.06
2023-02-25T15:37:49.836Z,3.97
2023-02-25T15:40:16.381Z,3.88
2023-02-25T15:42:48.335Z,4.00
2023-02-25T15:45:29.392Z,3.94
2023-02-25T15:48:08.129Z,3.88
2023-02-25T15:50:43.639Z,3.90
2023-02-25T15:53:23.344Z,3.85
2023-02-25T15:55:53.573Z,3.84
2023-02-25T15:58:26.013Z,3.85
2023-02-25T16:00:58.892Z,3.85
2023-02-25T16:03:31.461Z,3.77
2023-02-25T16:06:29.962Z,3.51
2023-02-25T16:09:08.091Z,3.39
2023-02-25T16:11:44.331Z,3.09
2023-02-25T16:14:29.210Z,2.94
2023-02-25T16:16:58.278Z,2.87
2023-02-25T16:19:28.855Z,2.76
2023-02-25T16:22:01.811Z,2.72
2023-02-25T16:24:28.759Z,2.62
2023-02-25T16:27:05.408Z,2.63
2023-02-25T16:29:54.548Z,2.65
2023-02-25T16:32:33.821Z,2.60
2023-02-25T16:35:14.372Z,2.63
2023-02-25T16:37:43.784Z,2.60
2023-02-25T16:40:34.934Z,2.54
2023-02-25T16:43:01.362Z,2.57
2023-02-25T16:46:04.201Z,2.61
2023-02-25T16:48:33.923Z,2.56
2023-02-25T16:51:20.594Z,2.56
2023-02-25T16:53:49.703Z,2.63
2023-02-25T16:56:26.240Z,2.61
2023-02-25T16:58:59.784Z,2.63
2023-02-25T17:01:29.390Z,2.58
2023-02-25T17:04:28.259Z,2.59
2023-02-25T17:07:14.172Z,2.65
2023-02-25T17:09:43.569Z,2.63
2023-02-25T17:12:14.626Z,2.52
2023-02-25T17:14:44.659Z,2.53
2023-02-25T17:17:36.424Z,2.62
2023-02-25T17:20:06.022Z,2.42
2023-02-25T17:22:33.675Z,2.48
2023-02-25T17:25:00.358Z,2.46
2023-02-25T17:27:28.465Z,2.53
2023-02-25T17:29:55.360Z,2.58
2023-02-25T17:32:31.233Z,2.46
2023-02-25T17:35:00.889Z,2.42
2023-02-25T17:37:28.731Z,2.49
2023-02-25T17:39:55.943Z,2.44
2023-02-25T17:42:36.661Z,2.41
2023-02-25T17:45:08.436Z,2.48
2023-02-25T17:47:37.170Z,2.44
2023-02-25T17:50:28.865Z,2.48
2023-02-25T17:52:56.118Z,2.46
2023-02-25T17:55:28.100Z,2.49
2023-02-25T17:57:58.306Z,2.50
2023-02-25T18:00:32.426Z,2.52
2023-02-25T18:03:16.078Z,2.58
2023-02-25T18:06:25.848Z,2.59
2023-02-25T18:08:53.848Z,2.55
2023-02-25T18:11:41.374Z,2.53
2023-02-25T18:14:34.184Z,2.59
2023-02-25T18:17:01.691Z,2.47
2023-02-25T18:19:36.946Z,2.48
2023-02-25T18:22:04.147Z,2.53
2023-02-25T18:24:33.503Z,2.57
2023-02-25T18:27:15.352Z,2.58
2023-02-25T18:29:41.860Z,2.57
2023-02-25T18:32:08.628Z,2.56
2023-02-25T18:34:35.200Z,2.51
2023-02-25T18:37:01.893Z,2.46
2023-02-25T18:39:28.410Z,2.40
2023-02-25T18:41:55.045Z,2.49
2023-02-25T18:44:21.555Z,2.49
2023-02-25T18:46:48.255Z,2.48
2023-02-25T18:49:14.837Z,2.39
2023-02-25T18:51:41.405Z,2.34
2023-02-25T18:54:12.387Z,2.37
2023-02-25T18:56:38.957Z,2.25
2023-02-25T18:59:05.844Z,2.22
2023-02-25T19:01:33.269Z,2.24
2023-02-25T19:04:00.355Z,2.28
2023-02-25T19:06:32.054Z,2.26
2023-02-25T19:08:58.542Z,2.36
2023-02-25T19:11:27.410Z,2.24
2023-02-25T19:13:54.526Z,2.25
2023-02-25T19:16:23.332Z,2.28
2023-02-25T19:18:50.299Z,2.30
2023-02-25T19:21:18.872Z,2.37
2023-02-25T19:23:45.948Z,2.40
2023-02-25T19:26:14.523Z,2.37
2023-02-25T19:28:41.088Z,2.37
2023-02-25T19:31:08.620Z,2.39
2023-02-25T19:33:35.615Z,2.39
2023-02-25T19:36:03.735Z,2.40
2023-02-25T19:38:30.395Z,2.43
2023-02-25T19:41:01.412Z,2.27
2023-02-25T19:43:27.897Z,2.25
2023-02-25T19:45:54.532Z,2.31
2023-02-25T19:48:21.223Z,2.25
2023-02-25T19:50:47.852Z,2.22
2023-02-25T19:53:14.464Z,2.27
2023-02-25T19:55:43.116Z,2.28
2023-02-25T19:58:09.751Z,2.33
2023-02-25T20:00:36.380Z,2.32
2023-02-25T20:03:02.962Z,2.32
2023-02-25T20:05:29.455Z,2.32
2023-02-25T20:07:56.228Z,2.33
2023-02-25T20:10:22.783Z,2.35
2023-02-25T20:12:49.394Z,2.30
2023-02-25T20:15:16.434Z,2.22
2023-02-25T20:17:44.869Z,2.28
2023-02-25T20:20:14.013Z,2.26
2023-02-25T20:22:41.070Z,2.33
2023-02-25T20:25:08.804Z,2.31
2023-02-25T20:27:37.161Z,2.30
2023-02-25T20:30:04.781Z,2.28
2023-02-25T20:32:31.452Z,2.31
2023-02-25T20:34:58.150Z,2.27
2023-02-25T20:37:30.640Z,2.28
2023-02-25T20:39:59.020Z,2.14
2023-02-25T20:42:30.576Z,2.23
2023-02-25T20:44:58.577Z,2.09
2023-02-25T20:47:35.463Z,2.09
2023-02-25T20:50:04.188Z,2.19
2023-02-25T20:52:30.823Z,2.18
2023-02-25T20:54:58.146Z,2.16
2023-02-25T20:57:26.694Z,2.06
2023-02-25T20:59:54.115Z,2.08
2023-02-25T21:02:21.115Z,2.06
2023-02-25T21:04:47.658Z,2.07
2023-02-25T21:07:14.393Z,2.04
2023-02-25T21:09:40.979Z,2.13
2023-02-25T21:12:07.753Z,2.11
2023-02-25T21:14:34.338Z,1.99
2023-02-25T21:17:00.879Z,2.02
2023-02-25T21:19:28.666Z,1.97
2023-02-25T21:21:55.274Z,2.02
2023-02-25T21:24:21.958Z,2.06
2023-02-25T21:26:48.586Z,2.03
2023-02-25T21:29:15.173Z,1.94
2023-02-25T21:31:42.098Z,1.95
2023-02-25T21:34:11.682Z,1.82
2023-02-25T21:36:38.940Z,1.87
2023-02-25T21:39:06.953Z,1.90
2023-02-25T21:41:33.769Z,1.95
2023-02-25T21:44:00.407Z,1.78
2023-02-25T21:46:27.582Z,1.87
2023-02-25T21:48:55.849Z,1.79
2023-02-25T21:51:24.967Z,1.84
2023-02-25T21:53:56.545Z,1.79
2023-02-25T21:56:24.054Z,1.75
2023-02-25T21:58:55.530Z,1.76
2023-02-25T22:01:26.020Z,1.68
2023-02-25T22:03:52.780Z,1.74
2023-02-25T22:06:19.912Z,1.74
2023-02-25T22:08:46.417Z,1.76
2023-02-25T22:11:14.326Z,1.74
2023-02-25T22:13:41.139Z,1.75
2023-02-25T22:16:08.464Z,1.74
2023-02-25T22:18:35.266Z,1.81
2023-02-25T22:21:04.637Z,1.73
2023-02-25T22:23:31.194Z,1.82
2023-02-25T22:26:04.666Z,1.82
2023-02-25T22:28:31.434Z,1.81
2023-02-25T22:30:58.325Z,1.86
2023-02-25T22:33:25.127Z,1.82
2023-02-25T22:35:56.610Z,1.78
2023-02-25T22:38:23.270Z,1.76
2023-02-25T22:40:49.897Z,1.82
2023-02-25T22:43:17.205Z,1.80
2023-02-25T22:45:43.822Z,1.83
2023-02-25T22:48:10.352Z,1.83
2023-02-25T22:50:36.886Z,1.86
2023-02-25T22:53:03.435Z,1.79
2023-02-25T22:55:30.044Z,1.80
2023-02-25T22:57:56.570Z,1.86
2023-02-25T23:00:23.978Z,1.81
2023-02-25T23:02:50.500Z,1.68
2023-02-25T23:05:17.113Z,1.79
2023-02-25T23:07:43.681Z,1.76
2023-02-25T23:10:10.607Z,1.79
2023-02-25T23:12:37.171Z,1.81
2023-02-25T23:15:04.179Z,1.80
2023-02-25T23:17:30.815Z,1.79
2023-02-25T23:20:00.238Z,1.78
2023-02-25T23:22:28.941Z,1.80
2023-02-25T23:24:55.519Z,1.80
2023-02-25T23:27:22.059Z,1.77
2023-02-25T23:29:48.581Z,1.81
2023-02-25T23:32:15.335Z,1.73
2023-02-25T23:34:42.006Z,1.67
2023-02-25T23:37:08.632Z,1.69
2023-02-25T23:39:35.226Z,1.71
2023-02-25T23:42:01.733Z,1.58
2023-02-25T23:44:28.259Z,1.60
2023-02-25T23:46:54.764Z,1.58
2023-02-25T23:49:21.344Z,1.51
2023-02-25T23:51:48.770Z,1.59
2023-02-25T23:54:19.162Z,1.51
2023-02-25T23:56:46.013Z,1.55
2023-02-25T23:59:12.770Z,1.62
